createdAt,value
2018-02-24T00:01:22.394Z,16.17
2018-02-24T00:03:50.648Z,13.88
2018-02-24T00:06:18.113Z,11.20
2018-02-24T00:08:45.586Z,9.98
2018-02-24T00:11:13.859Z,10.70
2018-02-24T00:13:42.097Z,16.02
2018-02-24T00:16:10.331Z,14.73
2018-02-24T00:18:37.900Z,13.15
2018-02-24T00:21:05.372Z,14.68
2018-02-24T00:23:32.879Z,12.68
2018-02-24T00:26:00.327Z,12.68
2018-02-24T00:28:28.599Z,11.57
2018-02-24T00:30:56.058Z,14.25
2018-02-24T00:33:24.291Z,12.75
2018-02-24T00:35:51.773Z,14.63
2018-02-24T00:38:19.266Z,12.07
2018-02-24T00:40:46.735Z,13.27
2018-02-24T00:43:14.225Z,15.35
2018-02-24T00:45:41.725Z,11.98
2018-02-24T00:48:09.958Z,10.30
2018-02-24T00:50:37.465Z,16.02
2018-02-24T00:53:04.965Z,13.82
2018-02-24T00:55:32.405Z,11.93
2018-02-24T00:57:59.904Z,16.05
2018-02-24T01:00:27.355Z,11.07
2018-02-24T01:02:54.858Z,19.42
2018-02-24T01:05:22.320Z,12.68
2018-02-24T01:07:49.790Z,12.00
2018-02-24T01:10:17.285Z,12.90
2018-02-24T01:12:44.749Z,14.85
2018-02-24T01:15:12.988Z,17.33
2018-02-24T01:17:40.461Z,14.95
2018-02-24T01:20:07.922Z,14.95
2018-02-24T01:22:35.430Z,12.70
2018-02-24T01:25:02.913Z,12.40
2018-02-24T01:27:30.388Z,11.57
2018-02-24T01:29:57.850Z,20.37
2018-02-24T01:32:25.347Z,14.80
2018-02-24T01:34:52.840Z,20.08
2018-02-24T01:37:20.319Z,18.45
2018-02-24T01:39:47.789Z,13.00
2018-02-24T01:42:16.045Z,16.55
2018-02-24T01:44:43.512Z,14.10
2018-02-24T01:47:11.770Z,9.82
2018-02-24T01:49:39.235Z,11.68
2018-02-24T01:52:06.766Z,10.90
2018-02-24T01:54:34.230Z,11.05
2018-02-24T01:57:01.717Z,12.15
2018-02-24T01:59:29.953Z,11.75
2018-02-24T02:01:57.443Z,14.05
2018-02-24T02:04:25.673Z,20.77
2018-02-24T02:06:53.161Z,14.13
2018-02-24T02:09:20.618Z,16.98
2018-02-24T02:11:48.091Z,12.55
2018-02-24T02:14:16.364Z,12.52
2018-02-24T02:16:44.598Z,14.13
2018-02-24T02:19:12.066Z,13.62
2018-02-24T02:21:39.566Z,16.02
2018-02-24T02:24:07.036Z,13.52
2018-02-24T02:26:34.497Z,15.38
2018-02-24T02:29:01.981Z,18.10
2018-02-24T02:31:29.462Z,17.23
2018-02-24T02:33:56.965Z,14.00
2018-02-24T02:36:25.189Z,12.40
2018-02-24T02:38:52.646Z,14.25
2018-02-24T02:41:20.114Z,13.90
2018-02-24T02:43:48.377Z,17.35
2018-02-24T02:46:15.837Z,18.30
2018-02-24T02:48:44.076Z,19.60
2018-02-24T02:51:11.557Z,19.08
2018-02-24T02:53:39.026Z,15.20
2018-02-24T02:56:07.258Z,15.77
2018-02-24T02:58:34.748Z,20.52
2018-02-24T03:01:02.246Z,12.65
2018-02-24T03:03:29.714Z,10.60
2018-02-24T03:05:57.203Z,13.62
2018-02-24T03:08:24.689Z,12.68
2018-02-24T03:10:52.954Z,12.25
2018-02-24T03:13:21.181Z,13.62
2018-02-24T03:15:48.674Z,16.20
2018-02-24T03:18:16.169Z,14.77
2018-02-24T03:20:43.648Z,16.08
2018-02-24T03:23:11.130Z,16.92
2018-02-24T03:25:38.622Z,21.65
2018-02-24T03:28:06.871Z,16.92
2018-02-24T03:30:34.341Z,11.90
2018-02-24T03:33:02.581Z,15.40
2018-02-24T03:35:30.053Z,18.90
2018-02-24T03:37:57.523Z,17.85
2018-02-24T03:40:25.026Z,11.57
2018-02-24T03:42:52.493Z,8.48
2018-02-24T03:45:19.958Z,15.68
2018-02-24T03:47:47.446Z,15.82
2018-02-24T03:50:14.925Z,13.55
2018-02-24T03:52:43.164Z,21.67
2018-02-24T03:55:10.640Z,14.70
2018-02-24T03:57:38.886Z,17.12
2018-02-24T04:00:06.351Z,14.38
2018-02-24T04:02:33.830Z,16.17
2018-02-24T04:05:02.071Z,15.98
2018-02-24T04:07:30.292Z,20.17
2018-02-24T04:09:57.780Z,11.60
2018-02-24T04:12:25.244Z,11.95
2018-02-24T04:14:52.732Z,16.50
2018-02-24T04:17:20.213Z,21.92
2018-02-24T04:19:47.715Z,13.80
2018-02-24T04:22:15.177Z,17.10
2018-02-24T04:24:42.655Z,12.40
2018-02-24T04:27:10.208Z,17.83
2018-02-24T04:29:37.759Z,15.85
2018-02-24T04:32:05.255Z,15.43
2018-02-24T04:34:32.724Z,13.38
2018-02-24T04:37:00.185Z,18.23
2018-02-24T04:39:27.677Z,16.08
2018-02-24T04:41:55.141Z,19.67
2018-02-24T04:44:22.633Z,18.08
2018-02-24T04:46:59.275Z,20.17
2018-02-24T04:49:26.769Z,14.75
2018-02-24T04:51:54.260Z,14.40
2018-02-24T04:54:21.721Z,16.70
2018-02-24T04:56:49.204Z,12.60
2018-02-24T04:59:16.666Z,11.35
2018-02-24T05:01:44.910Z,11.32
2018-02-24T05:04:12.401Z,14.68
2018-02-24T05:06:40.633Z,12.25
2018-02-24T05:09:08.097Z,18.37
2018-02-24T05:11:35.577Z,11.80
2018-02-24T05:14:03.041Z,18.73
2018-02-24T05:16:31.298Z,13.35
2018-02-24T05:18:58.792Z,10.82
2018-02-24T05:21:26.262Z,20.88
2018-02-24T05:23:53.713Z,11.80
2018-02-24T05:26:21.181Z,9.10
2018-02-24T05:28:48.649Z,8.07
2018-02-24T05:31:16.106Z,15.65
2018-02-24T05:33:43.594Z,11.27
2018-02-24T05:36:11.051Z,9.35
2018-02-24T05:38:38.515Z,13.55
2018-02-24T05:41:06.753Z,10.93
2018-02-24T05:43:34.219Z,9.32
2018-02-24T05:46:01.674Z,7.95
2018-02-24T05:48:29.166Z,19.58
2018-02-24T05:50:57.388Z,12.40
2018-02-24T05:53:25.629Z,12.80
2018-02-24T05:55:53.106Z,10.93
2018-02-24T05:58:20.562Z,15.63
2018-02-24T06:00:48.021Z,12.55
2018-02-24T06:03:15.507Z,13.18
2018-02-24T06:05:42.975Z,10.02
2018-02-24T06:08:10.449Z,11.07
2018-02-24T06:10:38.687Z,9.18
2018-02-24T06:13:06.153Z,8.75
2018-02-24T06:15:33.613Z,11.27
2018-02-24T06:18:01.088Z,9.98
2018-02-24T06:20:29.325Z,8.88
2018-02-24T06:22:56.794Z,9.40
2018-02-24T06:25:24.270Z,9.90
2018-02-24T06:27:52.494Z,13.27
2018-02-24T06:30:19.965Z,11.00
2018-02-24T06:32:48.212Z,8.60
2018-02-24T06:35:15.678Z,10.27
2018-02-24T06:37:43.142Z,13.95
2018-02-24T06:40:10.617Z,12.60
2018-02-24T06:42:38.089Z,10.40
2018-02-24T06:45:05.551Z,12.75
2018-02-24T06:47:33.791Z,11.20
2018-02-24T06:50:02.017Z,13.70
2018-02-24T06:52:29.473Z,14.00
2018-02-24T06:54:56.949Z,11.93
2018-02-24T06:57:24.412Z,10.32
2018-02-24T06:59:51.878Z,14.23
2018-02-24T07:02:19.355Z,13.05
2018-02-24T07:04:46.834Z,13.80
2018-02-24T07:07:15.065Z,17.10
2018-02-24T07:09:42.551Z,15.25
2018-02-24T07:12:10.071Z,13.43
2018-02-24T07:14:37.534Z,19.95
2018-02-24T07:17:05.009Z,16.67
2018-02-24T07:19:32.470Z,14.18
2018-02-24T07:21:59.932Z,15.00
2018-02-24T07:24:27.419Z,10.93
2018-02-24T07:26:54.886Z,22.50
2018-02-24T07:29:22.355Z,21.15
2018-02-24T07:31:49.827Z,12.23
2018-02-24T07:34:18.066Z,12.13
2018-02-24T07:36:45.539Z,16.92
2018-02-24T07:39:13.014Z,13.65
2018-02-24T07:41:40.500Z,13.02
2018-02-24T07:44:07.964Z,13.57
2018-02-24T07:46:36.210Z,13.10
2018-02-24T07:49:03.678Z,11.63
2018-02-24T07:51:31.147Z,11.07
2018-02-24T07:53:59.385Z,14.75
2018-02-24T07:56:26.851Z,16.80
2018-02-24T07:58:54.312Z,16.00
2018-02-24T08:01:21.790Z,10.57
2018-02-24T08:03:50.024Z,15.00
2018-02-24T08:06:17.501Z,13.98
2018-02-24T08:08:44.973Z,16.90
2018-02-24T08:11:13.206Z,11.35
2018-02-24T08:13:40.659Z,10.63
2018-02-24T08:16:08.168Z,17.58
2018-02-24T08:18:36.447Z,13.60
2018-02-24T08:21:04.672Z,14.40
2018-02-24T08:23:32.153Z,12.57
2018-02-24T08:25:59.612Z,12.98
2018-02-24T08:28:27.081Z,13.35
2018-02-24T08:30:55.321Z,10.13
2018-02-24T08:33:22.796Z,11.50
2018-02-24T08:35:50.265Z,12.05
2018-02-24T08:38:18.497Z,13.13
2018-02-24T08:40:45.966Z,20.60
2018-02-24T08:43:13.441Z,12.25
2018-02-24T08:45:40.914Z,14.40
2018-02-24T08:48:09.150Z,15.30
2018-02-24T08:50:37.382Z,12.85
2018-02-24T08:53:04.862Z,12.18
2018-02-24T08:55:32.326Z,17.35
2018-02-24T08:57:59.834Z,12.20
2018-02-24T09:00:27.278Z,16.12
2018-02-24T09:02:55.507Z,13.02
2018-02-24T09:05:22.975Z,11.15
2018-02-24T09:07:51.223Z,14.55
2018-02-24T09:10:18.684Z,11.40
2018-02-24T09:12:46.153Z,14.98
2018-02-24T09:15:13.629Z,9.82
2018-02-24T09:17:41.103Z,11.45
2018-02-24T09:20:09.334Z,12.50
2018-02-24T09:22:36.818Z,11.40
2018-02-24T09:25:04.286Z,13.25
2018-02-24T09:27:31.750Z,12.35
2018-02-24T09:30:00.089Z,11.75
2018-02-24T09:32:27.550Z,8.88
2018-02-24T09:34:55.004Z,10.35
2018-02-24T09:37:22.483Z,11.82
2018-02-24T09:39:49.941Z,13.77
2018-02-24T09:42:17.403Z,13.60
2018-02-24T09:44:45.642Z,10.10
2018-02-24T09:47:13.334Z,10.88
2018-02-24T09:49:40.790Z,11.38
2018-02-24T09:52:09.031Z,9.05
2018-02-24T09:54:36.497Z,14.35
2018-02-24T09:57:05.172Z,10.75
2018-02-24T09:59:32.678Z,8.75
2018-02-24T10:02:00.153Z,12.05
2018-02-24T10:04:27.631Z,13.02
2018-02-24T10:06:55.889Z,12.37
2018-02-24T10:09:23.348Z,10.13
2018-02-24T10:11:50.810Z,10.88
2018-02-24T10:14:18.296Z,11.65
2018-02-24T10:16:45.762Z,8.68
2018-02-24T10:19:13.221Z,14.00
2018-02-24T10:21:40.710Z,9.90
2018-02-24T10:24:08.972Z,15.00
2018-02-24T10:26:37.200Z,9.40
2018-02-24T10:29:04.660Z,11.65
2018-02-24T10:31:32.129Z,10.25
2018-02-24T10:33:59.612Z,11.75
2018-02-24T10:36:27.907Z,11.60
2018-02-24T10:38:55.363Z,9.88
2018-02-24T10:41:22.829Z,11.38
2018-02-24T10:43:50.312Z,9.15
2018-02-24T10:46:17.768Z,11.05
2018-02-24T10:48:45.235Z,10.95
2018-02-24T10:51:12.713Z,8.45
2018-02-24T10:53:40.937Z,7.57
2018-02-24T10:56:08.393Z,6.60
2018-02-24T10:58:35.877Z,9.93
2018-02-24T11:01:03.334Z,7.72
2018-02-24T11:03:30.793Z,7.03
2018-02-24T11:05:58.348Z,8.35
2018-02-24T11:08:26.494Z,8.55
2018-02-24T11:10:53.957Z,6.90
2018-02-24T11:13:22.177Z,6.00
2018-02-24T11:15:49.658Z,6.45
2018-02-24T11:18:17.114Z,4.75
2018-02-24T11:20:44.606Z,7.62
2018-02-24T11:23:12.849Z,7.95
2018-02-24T11:25:40.318Z,7.70
2018-02-24T11:28:07.854Z,8.25
2018-02-24T11:30:35.317Z,7.60
2018-02-24T11:33:02.779Z,5.30
2018-02-24T11:35:30.273Z,7.12
2018-02-24T11:37:57.737Z,8.00
2018-02-24T11:40:25.240Z,5.70
2018-02-24T11:42:52.803Z,6.12
2018-02-24T11:45:24.676Z,6.00
2018-02-24T11:47:52.268Z,6.15
2018-02-24T11:50:20.494Z,5.57
2018-02-24T11:52:47.971Z,5.22
2018-02-24T11:55:16.230Z,8.02
2018-02-24T11:57:43.733Z,5.97
2018-02-24T12:00:11.180Z,6.87
2018-02-24T12:02:38.650Z,4.82
2018-02-24T12:05:06.877Z,6.60
2018-02-24T12:07:34.395Z,7.28
2018-02-24T12:10:01.869Z,6.18
2018-02-24T12:12:29.682Z,6.70
2018-02-24T12:14:57.575Z,4.10
2018-02-24T12:17:25.053Z,6.32
2018-02-24T12:19:52.620Z,5.57
2018-02-24T12:22:20.179Z,8.07
2018-02-24T12:24:47.660Z,7.20
2018-02-24T12:27:15.149Z,7.50
2018-02-24T12:29:43.560Z,6.63
2018-02-24T12:32:12.480Z,7.80
2018-02-24T12:34:40.054Z,6.47
2018-02-24T12:37:08.355Z,6.60
2018-02-24T12:39:37.383Z,6.27
2018-02-24T12:42:05.108Z,6.83
2018-02-24T12:44:33.376Z,8.23
2018-02-24T12:47:02.552Z,7.30
2018-02-24T12:49:30.498Z,7.97
2018-02-24T12:51:58.006Z,7.73
2018-02-24T12:54:26.583Z,7.20
2018-02-24T12:56:55.962Z,7.07
2018-02-24T12:59:23.882Z,8.10
2018-02-24T13:01:51.392Z,7.10
2018-02-24T13:04:18.850Z,10.30
2018-02-24T13:06:46.331Z,7.77
2018-02-24T13:09:13.780Z,7.83
2018-02-24T13:11:42.010Z,10.63
2018-02-24T13:14:10.248Z,9.10
2018-02-24T13:16:37.701Z,8.93
2018-02-24T13:19:05.184Z,12.07
2018-02-24T13:21:32.821Z,13.03
2018-02-24T13:24:00.295Z,11.00
2018-02-24T13:26:27.886Z,10.77
2018-02-24T13:28:55.468Z,11.23
2018-02-24T13:31:23.344Z,10.33
2018-02-24T13:33:51.571Z,11.30
2018-02-24T13:36:19.303Z,11.20
2018-02-24T13:38:46.900Z,10.67
2018-02-24T13:41:14.443Z,10.50
2018-02-24T13:43:41.927Z,10.53
2018-02-24T13:46:09.418Z,10.17
2018-02-24T13:48:36.901Z,11.37
2018-02-24T13:51:05.244Z,10.90
2018-02-24T13:53:32.793Z,11.33
2018-02-24T13:56:01.120Z,10.47
2018-02-24T13:58:28.578Z,8.47
2018-02-24T14:00:56.063Z,11.23
2018-02-24T14:03:23.541Z,11.53
2018-02-24T14:05:54.574Z,9.57
2018-02-24T14:08:22.165Z,10.23
2018-02-24T14:10:49.640Z,9.90
2018-02-24T14:13:17.135Z,11.00
2018-02-24T14:15:44.589Z,10.47
2018-02-24T14:18:12.846Z,11.97
2018-02-24T14:20:41.240Z,9.67
2018-02-24T14:23:08.945Z,10.90
2018-02-24T14:25:36.403Z,9.07
2018-02-24T14:28:03.894Z,12.37
2018-02-24T14:30:31.347Z,11.43
2018-02-24T14:32:58.821Z,10.03
2018-02-24T14:35:26.288Z,10.60
2018-02-24T14:37:54.829Z,7.53
2018-02-24T14:40:23.108Z,10.97
2018-02-24T14:42:50.586Z,10.50
2018-02-24T14:45:18.057Z,10.53
2018-02-24T14:47:46.314Z,9.17
2018-02-24T14:50:23.195Z,7.23
2018-02-24T14:52:50.689Z,6.73
2018-02-24T14:55:18.146Z,9.40
2018-02-24T14:57:45.625Z,9.13
2018-02-24T15:00:13.297Z,8.60
2018-02-24T15:02:40.780Z,9.70
2018-02-24T15:05:08.263Z,10.40
2018-02-24T15:07:36.067Z,10.73
2018-02-24T15:10:03.632Z,10.47
2018-02-24T15:12:31.426Z,10.13
2018-02-24T15:14:58.887Z,8.07
2018-02-24T15:17:27.156Z,8.83
2018-02-24T15:19:55.381Z,7.40
2018-02-24T15:22:22.856Z,7.57
2018-02-24T15:24:50.730Z,8.30
2018-02-24T15:27:19.130Z,12.43
2018-02-24T15:29:47.372Z,11.17
2018-02-24T15:32:15.622Z,10.23
2018-02-24T15:34:43.104Z,10.67
2018-02-24T15:37:10.602Z,10.60
2018-02-24T15:39:38.830Z,18.07
2018-02-24T15:42:06.365Z,10.73
2018-02-24T15:44:33.873Z,10.70
2018-02-24T15:47:01.361Z,8.17
2018-02-24T15:49:28.906Z,9.63
2018-02-24T15:51:57.150Z,11.50
2018-02-24T15:54:24.993Z,8.67
2018-02-24T15:56:52.588Z,19.20
2018-02-24T15:59:20.079Z,8.30
2018-02-24T16:01:47.550Z,6.73
2018-02-24T16:04:15.024Z,9.77
2018-02-24T16:06:42.595Z,12.13
2018-02-24T16:09:10.184Z,8.30
2018-02-24T16:11:39.875Z,7.30
2018-02-24T16:14:07.664Z,6.40
2018-02-24T16:16:35.497Z,6.72
2018-02-24T16:19:04.869Z,8.32
2018-02-24T16:21:36.496Z,9.50
2018-02-24T16:24:05.844Z,5.95
2018-02-24T16:26:33.322Z,5.70
2018-02-24T16:29:01.546Z,5.75
2018-02-24T16:31:29.010Z,5.00
2018-02-24T16:33:56.468Z,6.68
2018-02-24T16:36:23.935Z,3.92
2018-02-24T16:38:51.489Z,5.87
2018-02-24T16:41:18.953Z,5.75
2018-02-24T16:43:46.445Z,9.75
2018-02-24T16:46:14.669Z,5.55
2018-02-24T16:48:42.138Z,6.53
2018-02-24T16:51:09.601Z,6.57
2018-02-24T16:53:37.084Z,7.15
2018-02-24T16:56:04.548Z,6.37
2018-02-24T16:58:32.059Z,5.45
2018-02-24T17:01:00.307Z,4.85
2018-02-24T17:03:27.775Z,4.93
2018-02-24T17:05:55.259Z,10.05
2018-02-24T17:08:22.786Z,6.75
2018-02-24T17:10:50.245Z,5.55
2018-02-24T17:13:17.710Z,4.50
2018-02-24T17:15:45.299Z,8.73
2018-02-24T17:18:13.533Z,5.78
2018-02-24T17:20:40.993Z,7.95
2018-02-24T17:23:08.466Z,7.32
2018-02-24T17:25:35.933Z,8.20
2018-02-24T17:28:03.380Z,8.23
2018-02-24T17:30:30.877Z,11.18
2018-02-24T17:32:58.337Z,6.57
2018-02-24T17:35:25.813Z,8.65
2018-02-24T17:37:53.321Z,8.75
2018-02-24T17:40:21.590Z,5.55
2018-02-24T17:42:49.826Z,6.75
2018-02-24T17:45:17.326Z,6.90
2018-02-24T17:47:44.905Z,6.93
2018-02-24T17:50:13.157Z,7.80
2018-02-24T17:52:40.682Z,8.18
2018-02-24T17:55:08.201Z,6.60
2018-02-24T17:57:35.614Z,5.30
2018-02-24T18:00:03.126Z,9.70
2018-02-24T18:02:30.614Z,6.55
2018-02-24T18:04:58.059Z,8.13
2018-02-24T18:07:25.540Z,7.57
2018-02-24T18:09:52.995Z,8.10
2018-02-24T18:12:20.476Z,7.62
2018-02-24T18:14:47.976Z,7.72
2018-02-24T18:17:15.454Z,6.50
2018-02-24T18:19:42.900Z,4.82
2018-02-24T18:22:10.431Z,6.95
2018-02-24T18:24:37.894Z,6.05
2018-02-24T18:27:05.414Z,7.85
2018-02-24T18:29:33.657Z,5.55
2018-02-24T18:32:01.125Z,6.90
2018-02-24T18:34:29.358Z,5.65
2018-02-24T18:36:56.845Z,9.35
2018-02-24T18:39:24.513Z,6.00
2018-02-24T18:41:51.984Z,8.98
2018-02-24T18:44:20.304Z,7.10
2018-02-24T18:46:47.774Z,5.00
2018-02-24T18:49:15.375Z,6.90
2018-02-24T18:51:43.634Z,6.95
2018-02-24T18:54:11.109Z,9.32
2018-02-24T18:56:39.330Z,6.95
2018-02-24T18:59:06.810Z,5.40
2018-02-24T19:01:34.269Z,9.63
2018-02-24T19:04:02.452Z,7.62
2018-02-24T19:06:29.991Z,6.37
2018-02-24T19:08:57.474Z,15.13
2018-02-24T19:11:25.707Z,7.85
2018-02-24T19:13:53.971Z,7.22
2018-02-24T19:16:21.499Z,7.25
2018-02-24T19:18:48.993Z,8.13
2018-02-24T19:21:16.451Z,5.18
2018-02-24T19:23:43.948Z,8.15
2018-02-24T19:26:11.409Z,7.20
2018-02-24T19:28:39.641Z,6.60
2018-02-24T19:31:07.933Z,6.53
2018-02-24T19:33:35.443Z,6.35
2018-02-24T19:36:02.964Z,7.07
2018-02-24T19:38:31.226Z,6.65
2018-02-24T19:40:58.748Z,8.88
2018-02-24T19:43:26.971Z,7.22
2018-02-24T19:45:54.453Z,9.77
2018-02-24T19:48:21.910Z,5.62
2018-02-24T19:50:49.397Z,4.28
2018-02-24T19:53:16.910Z,7.75
2018-02-24T19:55:45.159Z,6.35
2018-02-24T19:58:15.138Z,6.95
2018-02-24T20:00:42.708Z,11.60
2018-02-24T20:03:10.938Z,6.25
2018-02-24T20:05:38.457Z,5.95
2018-02-24T20:08:05.987Z,7.10
2018-02-24T20:10:33.448Z,5.62
2018-02-24T20:13:01.038Z,8.88
2018-02-24T20:15:28.491Z,5.97
2018-02-24T20:17:56.081Z,8.57
2018-02-24T20:20:23.603Z,7.03
2018-02-24T20:22:51.075Z,8.20
2018-02-24T20:25:19.366Z,6.85
2018-02-24T20:27:47.720Z,9.95
2018-02-24T20:30:15.194Z,6.30
2018-02-24T20:32:43.460Z,7.90
2018-02-24T20:35:11.724Z,9.05
2018-02-24T20:37:39.187Z,7.87
2018-02-24T20:40:07.421Z,6.72
2018-02-24T20:42:35.001Z,9.85
2018-02-24T20:45:02.488Z,8.00
2018-02-24T20:47:30.019Z,5.60
2018-02-24T20:49:57.554Z,6.03
2018-02-24T20:52:25.030Z,7.05
2018-02-24T20:54:52.537Z,6.12
2018-02-24T20:57:20.027Z,5.68
2018-02-24T20:59:48.395Z,7.72
2018-02-24T21:02:16.622Z,8.15
2018-02-24T21:04:44.850Z,6.65
2018-02-24T21:07:12.448Z,6.00
2018-02-24T21:09:40.663Z,6.93
2018-02-24T21:12:08.184Z,6.70
2018-02-24T21:14:36.697Z,8.63
2018-02-24T21:17:04.222Z,6.03
2018-02-24T21:19:32.536Z,8.98
2018-02-24T21:22:00.067Z,6.82
2018-02-24T21:24:27.579Z,7.30
2018-02-24T21:26:55.112Z,6.50
2018-02-24T21:29:22.570Z,6.87
2018-02-24T21:31:50.153Z,6.95
2018-02-24T21:34:17.620Z,5.62
2018-02-24T21:36:45.098Z,7.78
2018-02-24T21:39:13.373Z,6.53
2018-02-24T21:41:40.913Z,8.05
2018-02-24T21:44:08.362Z,5.75
2018-02-24T21:46:35.842Z,8.45
2018-02-24T21:49:03.329Z,6.40
2018-02-24T21:51:31.467Z,5.20
2018-02-24T21:53:59.035Z,5.68
2018-02-24T21:56:26.512Z,6.03
2018-02-24T21:58:54.033Z,6.50
2018-02-24T22:01:22.294Z,6.40
2018-02-24T22:03:50.528Z,5.25
2018-02-24T22:06:18.016Z,5.50
2018-02-24T22:08:45.502Z,5.60
2018-02-24T22:11:12.990Z,5.78
2018-02-24T22:13:40.466Z,5.37
2018-02-24T22:16:07.934Z,5.68
2018-02-24T22:18:35.409Z,4.25
2018-02-24T22:21:03.674Z,5.10
2018-02-24T22:23:31.138Z,6.00
2018-02-24T22:25:58.666Z,6.62
2018-02-24T22:28:26.914Z,5.57
2018-02-24T22:30:54.426Z,6.87
2018-02-24T22:33:22.728Z,7.43
2018-02-24T22:35:50.940Z,7.97
2018-02-24T22:38:18.467Z,5.80
2018-02-24T22:40:46.025Z,6.75
2018-02-24T22:43:13.531Z,7.78
2018-02-24T22:45:41.000Z,5.82
2018-02-24T22:48:14.182Z,5.90
2018-02-24T22:50:41.640Z,5.07
2018-02-24T22:53:09.119Z,7.25
2018-02-24T22:55:37.370Z,6.40
2018-02-24T22:58:04.822Z,5.82
2018-02-24T23:00:32.374Z,6.20
2018-02-24T23:02:59.830Z,6.95
2018-02-24T23:05:27.293Z,5.28
2018-02-24T23:07:54.803Z,5.28
2018-02-24T23:10:22.258Z,3.90
2018-02-24T23:12:49.713Z,4.95
2018-02-24T23:15:17.239Z,3.97
2018-02-24T23:17:45.464Z,5.20
2018-02-24T23:20:12.932Z,6.35
2018-02-24T23:22:40.443Z,4.50
2018-02-24T23:25:07.906Z,6.62
2018-02-24T23:27:35.385Z,4.20
2018-02-24T23:30:02.851Z,3.60
2018-02-24T23:32:30.306Z,5.12
2018-02-24T23:34:57.764Z,5.85
2018-02-24T23:37:25.228Z,4.70
2018-02-24T23:39:52.680Z,3.55
2018-02-24T23:42:20.151Z,3.58
2018-02-24T23:44:47.631Z,6.18
2018-02-24T23:47:15.859Z,4.95
2018-02-24T23:49:43.346Z,6.53
2018-02-24T23:52:11.600Z,3.10
2018-02-24T23:54:39.057Z,5.95
2018-02-24T23:57:06.513Z,3.80
2018-02-24T23:59:33.988Z,3.83
